This is the latest recevied weather packets stored in our database for station/object NC4M. If no packets are shown the sender has not sent any weather packets the latest 10 day(s).
| Time | Temp. | Humidity | Pressure | Rain* | Wind** | Luminosity | Snow |
|---|---|---|---|---|---|---|---|
| 1777384817 | 13.89° C | 75% | 1017.7 hPa | 0 mm | - | 130 W/m² | - |
| 1777383601 | 14.44° C | 70% | 1017.7 hPa | 0 mm | - | 95 W/m² | - |
| 1777383298 | 14.44° C | 75% | 1017.5 hPa | 0 mm | - | 103 W/m² | - |
| 1777382994 | 13.89° C | 75% | 1017.1 hPa | 0 mm | - | 181 W/m² | - |
| 1777381779 | 12.78° C | 78% | 1016.7 hPa | 0 mm | - | 43 W/m² | - |
| 1777381478 | 12.78° C | 78% | 1016.6 hPa | 0 mm | - | 41 W/m² | - |
| 1777381175 | 12.78° C | 78% | 1016.8 hPa | 0 mm | - | 40 W/m² | - |
| 1777379353 | 11.67° C | 82% | 1015.9 hPa | 0 mm | - | 29 W/m² | - |
| 1777378743 | 11.11° C | 87% | 1015.6 hPa | 0 mm | - | 24 W/m² | - |
| 1777378135 | 11.11° C | 91% | 1015.5 hPa | 0 mm | - | 21 W/m² | - |
| 1777377830 | 11.11° C | 91% | 1015.3 hPa | 0 mm | - | 19 W/m² | - |
| 1777377529 | 10.56° C | 92% | 1015.3 hPa | 0 mm | - | 18 W/m² | - |
| 1777372682 | 12.78° C | 85% | 1014.7 hPa | 0 mm | - | 0 W/m² | - |
| 1777372381 | 12.78° C | 85% | 1014.9 hPa | 0 mm | - | 0 W/m² | - |
| 1777372080 | 12.78° C | 85% | 1015.1 hPa | 0 mm | - | 0 W/m² | - |
| 1777371775 | 12.78° C | 85% | 1015.1 hPa | 0 mm | - | 0 W/m² | - |
| 1777371473 | 12.78° C | 85% | 1014.9 hPa | 0 mm | - | 0 W/m² | - |
| 1777371168 | 12.78° C | 85% | 1014.8 hPa | 0 mm | - | 0 W/m² | - |
| 1777370865 | 12.78° C | 85% | 1014.9 hPa | 0 mm | - | 0 W/m² | - |
| 1777370562 | 12.78° C | 85% | 1014.8 hPa | 0 mm | - | 0 W/m² | - |
| 1777370257 | 12.78° C | 85% | 1014.7 hPa | 0 mm | - | 0 W/m² | - |
| 1777369953 | 12.78° C | 85% | 1014.7 hPa | 0 mm | - | 0 W/m² | - |
| 1777369650 | 12.78° C | 84% | 1014.7 hPa | 0 mm | - | 0 W/m² | - |
| 1777369045 | 13.33° C | 84% | 1014.8 hPa | 0 mm | - | 0 W/m² | - |
| 1777368744 | 13.33° C | 83% | 1014.6 hPa | 0 mm | - | 0 W/m² | - |
* Rain latest hour (hover to see other rain measurements)
** Current wind speed in m/s (hover to see current wind gust speed)